PWSweather.com
Personal Weather Stations
Station Observations
AC5CV
Greenleaf Peninsula, Waco, TX 76710

Greenleaf PeninsulaWaco, TX 76710

Lat: 31.565, Lon: -97.198

Elevation: 570

Station Type: Ambient WS2080

http://johnchamber.dyndns.info/

High Low Average
Temperature 92.7°F33.7°C 63.1°F17.3°C 77.7°F25.4°C
Dew Point 64.7°F18.2°C 42.5°F5.8°C 54.8°F12.7°C
Winds 6.4 mph 10.3 kmh Calm Calm 1.0 mph SE1.6 kmh SE
Wind Gusts 12.3 mph19.8 kmh -- 3.0 mph4.8 kmh
Humidity 84% 18% 50%
Pressure 29.27 in991.2 mb 29.16 in987.5 mb -
Precipitation 0.00 in0.0 mm - -
Hour Temp Dew Point Humidity Winds Wind Gusts Pressure Precip Precip Rate Daily Precip Total
12:00 AM 71.1°F21.7°C 51.2°F10.7°C 50% 0.2 mph S0.3 kmh S 2.5 mph4.0 kmh 29.23 in989.8 mb 0.00 in0.0 mm 0.00 in0.0 mm 0.00 in0.0 mm
12:05 AM 71.1°F21.7°C 50.8°F10.4°C 49% Calm Calm -- 29.23 in989.8 mb 0.00 in0.0 mm 0.00 in0.0 mm 0.00 in0.0 mm
12:10 AM 71.1°F21.7°C 50.4°F10.2°C 48% Calm Calm -- 29.23 in989.8 mb 0.00 in0.0 mm 0.00 in0.0 mm 0.00 in0.0 mm
12:15 AM 71.1°F21.7°C 50.6°F10.3°C 48% 0.1 mph S0.2 kmh S 2.5 mph4.0 kmh 29.23 in989.8 mb 0.00 in0.0 mm 0.00 in0.0 mm 0.00 in0.0 mm
12:20 AM 71.2°F21.8°C 51.6°F10.9°C 50% Calm Calm -- 29.23 in989.8 mb 0.00 in0.0 mm 0.00 in0.0 mm 0.00 in0.0 mm
12:25 AM 71.2°F21.8°C 52.4°F11.3°C 52% Calm Calm -- 29.23 in989.8 mb 0.00 in0.0 mm 0.00 in0.0 mm 0.00 in0.0 mm
12:30 AM 70.9°F21.6°C 52.6°F11.4°C 52% Calm Calm -- 29.23 in989.8 mb 0.00 in0.0 mm 0.00 in0.0 mm 0.00 in0.0 mm
12:35 AM 70.6°F21.4°C 52.6°F11.4°C 53% Calm Calm -- 29.23 in989.8 mb 0.00 in0.0 mm 0.00 in0.0 mm 0.00 in0.0 mm
12:40 AM 70.2°F21.2°C 52.4°F11.3°C 53% Calm Calm -- 29.23 in989.8 mb 0.00 in0.0 mm 0.00 in0.0 mm 0.00 in0.0 mm
12:45 AM 69.8°F21.0°C 52.8°F11.6°C 55% Calm Calm -- 29.23 in989.8 mb 0.00 in0.0 mm 0.00 in0.0 mm 0.00 in0.0 mm
12:50 AM 69.4°F20.8°C 53.0°F11.7°C 56% Calm Calm -- 29.23 in989.8 mb 0.00 in0.0 mm 0.00 in0.0 mm 0.00 in0.0 mm
12:55 AM 69.2°F20.7°C 53.7°F12.1°C 58% Calm Calm -- 29.23 in989.8 mb 0.00 in0.0 mm 0.00 in0.0 mm 0.00 in0.0 mm
01:00 AM 69.0°F20.6°C 54.7°F12.6°C 60% Calm Calm -- 29.23 in989.8 mb 0.00 in0.0 mm 0.00 in0.0 mm 0.00 in0.0 mm
01:05 AM 68.8°F20.4°C 55.0°F12.8°C 61% Calm Calm -- 29.23 in989.8 mb 0.00 in0.0 mm 0.00 in0.0 mm 0.00 in0.0 mm
01:10 AM 68.6°F20.3°C 55.4°F13.0°C 63% Calm Calm -- 29.24 in990.2 mb 0.00 in0.0 mm 0.00 in0.0 mm 0.00 in0.0 mm
01:15 AM 68.4°F20.2°C 55.6°F13.1°C 64% Calm Calm -- 29.23 in989.8 mb 0.00 in0.0 mm 0.00 in0.0 mm 0.00 in0.0 mm
01:20 AM 68.3°F20.2°C 56.0°F13.3°C 65% Calm Calm -- 29.23 in989.8 mb 0.00 in0.0 mm 0.00 in0.0 mm 0.00 in0.0 mm
01:25 AM 68.1°F20.1°C 56.7°F13.7°C 67% Calm Calm -- 29.24 in990.2 mb 0.00 in0.0 mm 0.00 in0.0 mm 0.00 in0.0 mm
01:30 AM 67.8°F19.9°C 55.4°F13.0°C 64% Calm Calm -- 29.24 in990.2 mb 0.00 in0.0 mm 0.00 in0.0 mm 0.00 in0.0 mm
01:35 AM 67.6°F19.8°C 54.5°F12.5°C 63% Calm Calm -- 29.23 in989.8 mb 0.00 in0.0 mm 0.00 in0.0 mm 0.00 in0.0 mm
01:40 AM 67.4°F19.7°C 54.4°F12.4°C 63% Calm Calm -- 29.24 in990.2 mb 0.00 in0.0 mm 0.00 in0.0 mm 0.00 in0.0 mm
01:45 AM 67.0°F19.4°C 54.8°F12.7°C 65% Calm Calm -- 29.24 in990.2 mb 0.00 in0.0 mm 0.00 in0.0 mm 0.00 in0.0 mm
01:50 AM 66.7°F19.3°C 55.6°F13.1°C 68% Calm Calm -- 29.24 in990.2 mb 0.00 in0.0 mm 0.00 in0.0 mm 0.00 in0.0 mm
01:55 AM 66.4°F19.1°C 55.9°F13.3°C 69% Calm Calm -- 29.24 in990.2 mb 0.00 in0.0 mm 0.00 in0.0 mm 0.00 in0.0 mm
02:00 AM 66.0°F18.9°C 55.7°F13.2°C 70% Calm Calm -- 29.23 in989.8 mb 0.00 in0.0 mm 0.00 in0.0 mm 0.00 in0.0 mm
02:05 AM 65.7°F18.7°C 54.9°F12.7°C 68% Calm Calm -- 29.24 in990.2 mb 0.00 in0.0 mm 0.00 in0.0 mm 0.00 in0.0 mm
02:10 AM 65.5°F18.6°C 53.6°F12.0°C 65% Calm Calm -- 29.23 in989.8 mb 0.00 in0.0 mm 0.00 in0.0 mm 0.00 in0.0 mm
02:15 AM 65.5°F18.6°C 53.2°F11.8°C 64% Calm Calm -- 29.23 in989.8 mb 0.00 in0.0 mm 0.00 in0.0 mm 0.00 in0.0 mm
02:20 AM 65.6°F18.7°C 55.3°F12.9°C 69% Calm Calm -- 29.23 in989.8 mb 0.00 in0.0 mm 0.00 in0.0 mm 0.00 in0.0 mm
02:25 AM 65.8°F18.8°C 56.4°F13.6°C 72% Calm Calm -- 29.23 in989.8 mb 0.00 in0.0 mm 0.00 in0.0 mm 0.00 in0.0 mm
02:30 AM 66.0°F18.9°C 56.6°F13.7°C 72% Calm Calm -- 29.23 in989.8 mb 0.00 in0.0 mm 0.00 in0.0 mm 0.00 in0.0 mm
02:35 AM 66.4°F19.1°C 57.3°F14.1°C 72% Calm Calm -- 29.23 in989.8 mb 0.00 in0.0 mm 0.00 in0.0 mm 0.00 in0.0 mm
02:40 AM 66.8°F19.3°C 58.1°F14.5°C 74% Calm Calm -- 29.23 in989.8 mb 0.00 in0.0 mm 0.00 in0.0 mm 0.00 in0.0 mm
02:45 AM 67.0°F19.4°C 58.4°F14.7°C 74% Calm Calm -- 29.23 in989.8 mb 0.00 in0.0 mm 0.00 in0.0 mm 0.00 in0.0 mm
02:50 AM 67.0°F19.4°C 58.1°F14.5°C 73% Calm Calm -- 29.23 in989.8 mb 0.00 in0.0 mm 0.00 in0.0 mm 0.00 in0.0 mm
02:55 AM 66.8°F19.3°C 57.9°F14.4°C 73% Calm Calm -- 29.23 in989.8 mb 0.00 in0.0 mm 0.00 in0.0 mm 0.00 in0.0 mm
03:00 AM 66.7°F19.3°C 57.5°F14.2°C 72% Calm Calm -- 29.23 in989.8 mb 0.00 in0.0 mm 0.00 in0.0 mm 0.00 in0.0 mm
03:05 AM 66.3°F19.1°C 57.0°F13.9°C 72% Calm Calm -- 29.23 in989.8 mb 0.00 in0.0 mm 0.00 in0.0 mm 0.00 in0.0 mm
03:10 AM 65.8°F18.8°C 56.7°F13.7°C 72% Calm Calm -- 29.23 in989.8 mb 0.00 in0.0 mm 0.00 in0.0 mm 0.00 in0.0 mm
03:15 AM 65.3°F18.5°C 56.5°F13.6°C 73% Calm Calm -- 29.23 in989.8 mb 0.00 in0.0 mm 0.00 in0.0 mm 0.00 in0.0 mm
03:20 AM 65.0°F18.3°C 56.5°F13.6°C 74% Calm Calm -- 29.23 in989.8 mb 0.00 in0.0 mm 0.00 in0.0 mm 0.00 in0.0 mm
03:25 AM 64.7°F18.2°C 56.9°F13.8°C 76% Calm Calm -- 29.23 in989.8 mb 0.00 in0.0 mm 0.00 in0.0 mm 0.00 in0.0 mm
03:30 AM 64.5°F18.1°C 57.6°F14.2°C 78% Calm Calm -- 29.23 in989.8 mb 0.00 in0.0 mm 0.00 in0.0 mm 0.00 in0.0 mm
03:35 AM 64.4°F18.0°C 58.3°F14.6°C 80% Calm Calm -- 29.23 in989.8 mb 0.00 in0.0 mm 0.00 in0.0 mm 0.00 in0.0 mm
03:40 AM 64.4°F18.0°C 58.5°F14.7°C 81% Calm Calm -- 29.23 in989.8 mb 0.00 in0.0 mm 0.00 in0.0 mm 0.00 in0.0 mm
03:45 AM 64.4°F18.0°C 58.7°F14.8°C 82% Calm Calm -- 29.23 in989.8 mb 0.00 in0.0 mm 0.00 in0.0 mm 0.00 in0.0 mm
03:50 AM 64.5°F18.1°C 58.6°F14.8°C 81% Calm Calm -- 29.23 in989.8 mb 0.00 in0.0 mm 0.00 in0.0 mm 0.00 in0.0 mm
03:55 AM 64.6°F18.1°C 59.0°F15.0°C 82% Calm Calm -- 29.23 in989.8 mb 0.00 in0.0 mm 0.00 in0.0 mm 0.00 in0.0 mm
04:00 AM 64.8°F18.2°C 59.5°F15.3°C 83% Calm Calm -- 29.23 in989.8 mb 0.00 in0.0 mm 0.00 in0.0 mm 0.00 in0.0 mm
04:05 AM 64.8°F18.2°C 59.5°F15.3°C 83% Calm Calm -- 29.23 in989.8 mb 0.00 in0.0 mm 0.00 in0.0 mm 0.00 in0.0 mm
04:10 AM 64.8°F18.2°C 59.5°F15.3°C 83% Calm Calm -- 29.23 in989.8 mb 0.00 in0.0 mm 0.00 in0.0 mm 0.00 in0.0 mm
04:15 AM 64.9°F18.3°C 59.6°F15.3°C 83% Calm Calm -- 29.23 in989.8 mb 0.00 in0.0 mm 0.00 in0.0 mm 0.00 in0.0 mm
04:20 AM 64.9°F18.3°C 59.4°F15.2°C 82% Calm Calm -- 29.23 in989.8 mb 0.00 in0.0 mm 0.00 in0.0 mm 0.00 in0.0 mm
04:25 AM 64.9°F18.3°C 59.0°F15.0°C 81% Calm Calm -- 29.23 in989.8 mb 0.00 in0.0 mm 0.00 in0.0 mm 0.00 in0.0 mm
04:30 AM 64.9°F18.3°C 58.4°F14.7°C 80% Calm Calm -- 29.23 in989.8 mb 0.00 in0.0 mm 0.00 in0.0 mm 0.00 in0.0 mm
04:35 AM 65.1°F18.4°C 58.4°F14.7°C 79% Calm Calm -- 29.24 in990.2 mb 0.00 in0.0 mm 0.00 in0.0 mm 0.00 in0.0 mm
04:40 AM 65.1°F18.4°C 58.1°F14.5°C 78% Calm Calm -- 29.23 in989.8 mb 0.00 in0.0 mm 0.00 in0.0 mm 0.00 in0.0 mm
04:45 AM 65.1°F18.4°C 58.1°F14.5°C 78% Calm Calm -- 29.23 in989.8 mb 0.00 in0.0 mm 0.00 in0.0 mm 0.00 in0.0 mm
04:50 AM 65.1°F18.4°C 58.1°F14.5°C 78% Calm Calm -- 29.23 in989.8 mb 0.00 in0.0 mm 0.00 in0.0 mm 0.00 in0.0 mm
04:55 AM 65.1°F18.4°C 58.1°F14.5°C 78% Calm Calm -- 29.24 in990.2 mb 0.00 in0.0 mm 0.00 in0.0 mm 0.00 in0.0 mm
05:00 AM 65.1°F18.4°C 58.3°F14.6°C 79% Calm Calm -- 29.24 in990.2 mb 0.00 in0.0 mm 0.00 in0.0 mm 0.00 in0.0 mm
05:05 AM 65.1°F18.4°C 58.4°F14.7°C 79% 0.2 mph W0.3 kmh W 2.5 mph4.0 kmh 29.23 in989.8 mb 0.00 in0.0 mm 0.00 in0.0 mm 0.00 in0.0 mm
05:10 AM 65.0°F18.3°C 57.8°F14.3°C 78% Calm Calm -- 29.23 in989.8 mb 0.00 in0.0 mm 0.00 in0.0 mm 0.00 in0.0 mm
05:15 AM 64.9°F18.3°C 57.3°F14.1°C 76% Calm Calm -- 29.24 in990.2 mb 0.00 in0.0 mm 0.00 in0.0 mm 0.00 in0.0 mm
05:20 AM 64.9°F18.3°C 57.3°F14.1°C 76% Calm Calm -- 29.23 in989.8 mb 0.00 in0.0 mm 0.00 in0.0 mm 0.00 in0.0 mm
05:25 AM 64.9°F18.3°C 58.1°F14.5°C 79% Calm Calm -- 29.24 in990.2 mb 0.00 in0.0 mm 0.00 in0.0 mm 0.00 in0.0 mm
05:30 AM 64.9°F18.3°C 58.7°F14.8°C 80% Calm Calm -- 29.24 in990.2 mb 0.00 in0.0 mm 0.00 in0.0 mm 0.00 in0.0 mm
05:35 AM 64.8°F18.2°C 58.5°F14.7°C 80% Calm Calm -- 29.24 in990.2 mb 0.00 in0.0 mm 0.00 in0.0 mm 0.00 in0.0 mm
05:40 AM 64.5°F18.1°C 58.6°F14.8°C 81% Calm Calm -- 29.25 in990.5 mb 0.00 in0.0 mm 0.00 in0.0 mm 0.00 in0.0 mm
05:45 AM 64.2°F17.9°C 58.4°F14.7°C 82% Calm Calm -- 29.25 in990.5 mb 0.00 in0.0 mm 0.00 in0.0 mm 0.00 in0.0 mm
05:50 AM 63.9°F17.7°C 58.5°F14.7°C 83% Calm Calm -- 29.25 in990.5 mb 0.00 in0.0 mm 0.00 in0.0 mm 0.00 in0.0 mm
05:55 AM 63.6°F17.6°C 58.6°F14.8°C 84% Calm Calm -- 29.25 in990.5 mb 0.00 in0.0 mm 0.00 in0.0 mm 0.00 in0.0 mm
06:00 AM 63.2°F17.3°C 58.3°F14.6°C 84% Calm Calm -- 29.25 in990.5 mb 0.00 in0.0 mm 0.00 in0.0 mm 0.00 in0.0 mm
06:05 AM 63.1°F17.3°C 58.2°F14.6°C 84% Calm Calm -- 29.25 in990.5 mb 0.00 in0.0 mm 0.00 in0.0 mm 0.00 in0.0 mm
06:10 AM 63.1°F17.3°C 58.0°F14.4°C 83% Calm Calm -- 29.25 in990.5 mb 0.00 in0.0 mm 0.00 in0.0 mm 0.00 in0.0 mm
06:15 AM 63.1°F17.3°C 57.5°F14.2°C 82% Calm Calm -- 29.25 in990.5 mb 0.00 in0.0 mm 0.00 in0.0 mm 0.00 in0.0 mm
06:20 AM 63.2°F17.3°C 57.3°F14.1°C 81% Calm Calm -- 29.25 in990.5 mb 0.00 in0.0 mm 0.00 in0.0 mm 0.00 in0.0 mm
06:25 AM 63.3°F17.4°C 57.2°F14.0°C 80% Calm Calm -- 29.25 in990.5 mb 0.00 in0.0 mm 0.00 in0.0 mm 0.00 in0.0 mm
06:30 AM 63.5°F17.5°C 57.2°F14.0°C 80% Calm Calm -- 29.25 in990.5 mb 0.00 in0.0 mm 0.00 in0.0 mm 0.00 in0.0 mm
06:35 AM 63.7°F17.6°C 57.4°F14.1°C 80% Calm Calm -- 29.25 in990.5 mb 0.00 in0.0 mm 0.00 in0.0 mm 0.00 in0.0 mm
06:40 AM 63.8°F17.7°C 57.9°F14.4°C 81% Calm Calm -- 29.25 in990.5 mb 0.00 in0.0 mm 0.00 in0.0 mm 0.00 in0.0 mm
06:45 AM 63.9°F17.7°C 57.7°F14.3°C 80% Calm Calm -- 29.25 in990.5 mb 0.00 in0.0 mm 0.00 in0.0 mm 0.00 in0.0 mm
06:50 AM 64.1°F17.8°C 57.2°F14.0°C 78% Calm Calm -- 29.25 in990.5 mb 0.00 in0.0 mm 0.00 in0.0 mm 0.00 in0.0 mm
06:55 AM 64.6°F18.1°C 56.8°F13.8°C 76% Calm Calm -- 29.25 in990.5 mb 0.00 in0.0 mm 0.00 in0.0 mm 0.00 in0.0 mm
07:00 AM 65.2°F18.4°C 56.1°F13.4°C 72% Calm Calm -- 29.26 in990.9 mb 0.00 in0.0 mm 0.00 in0.0 mm 0.00 in0.0 mm
07:05 AM 65.8°F18.8°C 55.9°F13.3°C 70% Calm Calm -- 29.26 in990.9 mb 0.00 in0.0 mm 0.00 in0.0 mm 0.00 in0.0 mm
07:10 AM 66.5°F19.2°C 56.2°F13.4°C 70% Calm Calm -- 29.26 in990.9 mb 0.00 in0.0 mm 0.00 in0.0 mm 0.00 in0.0 mm
07:15 AM 67.1°F19.5°C 56.6°F13.7°C 69% Calm Calm -- 29.26 in990.9 mb 0.00 in0.0 mm 0.00 in0.0 mm 0.00 in0.0 mm
07:20 AM 67.7°F19.8°C 56.7°F13.7°C 68% Calm Calm -- 29.26 in990.9 mb 0.00 in0.0 mm 0.00 in0.0 mm 0.00 in0.0 mm
07:25 AM 68.3°F20.2°C 55.8°F13.2°C 64% Calm Calm -- 29.26 in990.9 mb 0.00 in0.0 mm 0.00 in0.0 mm 0.00 in0.0 mm
07:30 AM 68.6°F20.3°C 54.1°F12.3°C 60% Calm Calm -- 29.26 in990.9 mb 0.00 in0.0 mm 0.00 in0.0 mm 0.00 in0.0 mm
07:35 AM 68.9°F20.5°C 53.8°F12.1°C 59% Calm Calm -- 29.26 in990.9 mb 0.00 in0.0 mm 0.00 in0.0 mm 0.00 in0.0 mm
07:40 AM 69.1°F20.6°C 54.0°F12.2°C 59% Calm Calm -- 29.26 in990.9 mb 0.00 in0.0 mm 0.00 in0.0 mm 0.00 in0.0 mm
07:45 AM 69.3°F20.7°C 53.9°F12.2°C 58% Calm Calm -- 29.26 in990.9 mb 0.00 in0.0 mm 0.00 in0.0 mm 0.00 in0.0 mm
07:50 AM 69.6°F20.9°C 53.5°F11.9°C 56% Calm Calm -- 29.27 in991.2 mb 0.00 in0.0 mm 0.00 in0.0 mm 0.00 in0.0 mm
07:55 AM 69.8°F21.0°C 55.1°F12.8°C 60% Calm Calm 2.5 mph4.0 kmh 29.27 in991.2 mb 0.00 in0.0 mm 0.00 in0.0 mm 0.00 in0.0 mm
08:00 AM 69.7°F20.9°C 55.9°F13.3°C 62% 0.2 mph W0.3 kmh W 2.5 mph4.0 kmh 29.27 in991.2 mb 0.00 in0.0 mm 0.00 in0.0 mm 0.00 in0.0 mm
08:05 AM 69.6°F20.9°C 55.6°F13.1°C 61% Calm Calm -- 29.27 in991.2 mb 0.00 in0.0 mm 0.00 in0.0 mm 0.00 in0.0 mm
08:10 AM 69.6°F20.9°C 55.1°F12.8°C 60% Calm Calm -- 29.27 in991.2 mb 0.00 in0.0 mm 0.00 in0.0 mm 0.00 in0.0 mm
08:15 AM 69.7°F20.9°C 54.7°F12.6°C 59% Calm Calm -- 29.27 in991.2 mb 0.00 in0.0 mm 0.00 in0.0 mm 0.00 in0.0 mm
08:20 AM 69.9°F21.1°C 54.1°F12.3°C 57% Calm Calm -- 29.27 in991.2 mb 0.00 in0.0 mm 0.00 in0.0 mm 0.00 in0.0 mm
08:25 AM 70.2°F21.2°C 53.8°F12.1°C 56% Calm Calm 2.5 mph4.0 kmh 29.27 in991.2 mb 0.00 in0.0 mm 0.00 in0.0 mm 0.00 in0.0 mm
08:30 AM 70.8°F21.6°C 54.0°F12.2°C 56% 0.4 mph N0.6 kmh N 2.5 mph4.0 kmh 29.27 in991.2 mb 0.00 in0.0 mm 0.00 in0.0 mm 0.00 in0.0 mm
08:35 AM 71.5°F21.9°C 54.9°F12.7°C 56% Calm Calm -- 29.27 in991.2 mb 0.00 in0.0 mm 0.00 in0.0 mm 0.00 in0.0 mm
08:40 AM 72.2°F22.3°C 54.9°F12.7°C 55% Calm Calm 2.5 mph4.0 kmh 29.27 in991.2 mb 0.00 in0.0 mm 0.00 in0.0 mm 0.00 in0.0 mm
08:45 AM 72.9°F22.7°C 55.7°F13.2°C 55% Calm Calm 2.5 mph4.0 kmh 29.26 in990.9 mb 0.00 in0.0 mm 0.00 in0.0 mm 0.00 in0.0 mm
08:50 AM 73.5°F23.1°C 55.4°F13.0°C 53% Calm Calm -- 29.26 in990.9 mb 0.00 in0.0 mm 0.00 in0.0 mm 0.00 in0.0 mm
08:55 AM 74.2°F23.4°C 55.4°F13.0°C 52% 0.5 mph NW0.8 kmh NW 4.9 mph7.9 kmh 29.27 in991.2 mb 0.00 in0.0 mm 0.00 in0.0 mm 0.00 in0.0 mm
09:00 AM 74.9°F23.8°C 56.6°F13.7°C 53% 0.2 mph W0.3 kmh W 2.5 mph4.0 kmh 29.27 in991.2 mb 0.00 in0.0 mm 0.00 in0.0 mm 0.00 in0.0 mm
09:05 AM 75.2°F24.0°C 57.1°F13.9°C 54% 1.3 mph WNW2.1 kmh WNW 2.5 mph4.0 kmh 29.27 in991.2 mb 0.00 in0.0 mm 0.00 in0.0 mm 0.00 in0.0 mm
09:10 AM 75.1°F23.9°C 58.1°F14.5°C 56% 0.1 mph W0.2 kmh W 2.5 mph4.0 kmh 29.26 in990.9 mb 0.00 in0.0 mm 0.00 in0.0 mm 0.00 in0.0 mm
09:15 AM 75.3°F24.1°C 57.5°F14.2°C 54% Calm Calm -- 29.27 in991.2 mb 0.00 in0.0 mm 0.00 in0.0 mm 0.00 in0.0 mm
09:20 AM 75.6°F24.2°C 56.7°F13.7°C 52% Calm Calm -- 29.27 in991.2 mb 0.00 in0.0 mm 0.00 in0.0 mm 0.00 in0.0 mm
09:25 AM 75.7°F24.3°C 55.8°F13.2°C 50% 0.1 mph NNW0.2 kmh NNW 2.5 mph4.0 kmh 29.26 in990.9 mb 0.00 in0.0 mm 0.00 in0.0 mm 0.00 in0.0 mm
09:30 AM 76.3°F24.6°C 51.2°F10.7°C 42% Calm Calm 2.5 mph4.0 kmh 29.26 in990.9 mb 0.00 in0.0 mm 0.00 in0.0 mm 0.00 in0.0 mm
09:35 AM 77.5°F25.3°C 47.0°F8.3°C 34% 0.4 mph S0.6 kmh S 2.5 mph4.0 kmh 29.26 in990.9 mb 0.00 in0.0 mm 0.00 in0.0 mm 0.00 in0.0 mm
09:40 AM 78.9°F26.1°C 46.9°F8.3°C 32% 1.2 mph SE1.9 kmh SE 4.9 mph7.9 kmh 29.26 in990.9 mb 0.00 in0.0 mm 0.00 in0.0 mm 0.00 in0.0 mm
09:45 AM 80.2°F26.8°C 48.2°F9.0°C 33% 0.5 mph SSE0.8 kmh SSE 4.9 mph7.9 kmh 29.27 in991.2 mb 0.00 in0.0 mm 0.00 in0.0 mm 0.00 in0.0 mm
09:50 AM 81.0°F27.2°C 49.2°F9.6°C 33% 0.9 mph S1.4 kmh S 4.9 mph7.9 kmh 29.26 in990.9 mb 0.00 in0.0 mm 0.00 in0.0 mm 0.00 in0.0 mm
09:55 AM 81.6°F27.6°C 50.0°F10.0°C 33% 0.7 mph SE1.1 kmh SE 2.5 mph4.0 kmh 29.26 in990.9 mb 0.00 in0.0 mm 0.00 in0.0 mm 0.00 in0.0 mm
10:00 AM 81.9°F27.7°C 51.3°F10.7°C 35% 0.6 mph ESE1.0 kmh ESE 2.5 mph4.0 kmh 29.26 in990.9 mb 0.00 in0.0 mm 0.00 in0.0 mm 0.00 in0.0 mm
10:05 AM 81.8°F27.7°C 51.8°F11.0°C 36% 0.7 mph SE1.1 kmh SE 4.9 mph7.9 kmh 29.27 in991.2 mb 0.00 in0.0 mm 0.00 in0.0 mm 0.00 in0.0 mm
10:10 AM 81.8°F27.7°C 55.2°F12.9°C 40% 0.1 mph W0.2 kmh W 2.5 mph4.0 kmh 29.26 in990.9 mb 0.00 in0.0 mm 0.00 in0.0 mm 0.00 in0.0 mm
10:15 AM 81.8°F27.7°C 50.8°F10.4°C 34% 0.5 mph E0.8 kmh E 2.5 mph4.0 kmh 29.26 in990.9 mb 0.00 in0.0 mm 0.00 in0.0 mm 0.00 in0.0 mm
10:20 AM 82.0°F27.8°C 49.8°F9.9°C 33% 0.6 mph S1.0 kmh S 2.5 mph4.0 kmh 29.26 in990.9 mb 0.00 in0.0 mm 0.00 in0.0 mm 0.00 in0.0 mm
10:25 AM 82.4°F28.0°C 49.5°F9.7°C 32% 0.2 mph ENE0.3 kmh ENE 2.5 mph4.0 kmh 29.26 in990.9 mb 0.00 in0.0 mm 0.00 in0.0 mm 0.00 in0.0 mm
10:30 AM 82.9°F28.3°C 50.8°F10.4°C 33% 0.5 mph SSE0.8 kmh SSE 2.5 mph4.0 kmh 29.26 in990.9 mb 0.00 in0.0 mm 0.00 in0.0 mm 0.00 in0.0 mm
10:35 AM 83.2°F28.4°C 50.6°F10.3°C 32% 0.6 mph SSW1.0 kmh SSW 2.5 mph4.0 kmh 29.27 in991.2 mb 0.00 in0.0 mm 0.00 in0.0 mm 0.00 in0.0 mm
10:40 AM 83.4°F28.6°C 55.5°F13.1°C 39% 0.9 mph WNW1.4 kmh WNW 2.5 mph4.0 kmh 29.26 in990.9 mb 0.00 in0.0 mm 0.00 in0.0 mm 0.00 in0.0 mm
10:45 AM 83.3°F28.5°C 57.3°F14.1°C 41% 0.4 mph NNW0.6 kmh NNW 2.5 mph4.0 kmh 29.26 in990.9 mb 0.00 in0.0 mm 0.00 in0.0 mm 0.00 in0.0 mm
10:50 AM 83.1°F28.4°C 56.0°F13.3°C 40% 0.1 mph N0.2 kmh N 2.5 mph4.0 kmh 29.26 in990.9 mb 0.00 in0.0 mm 0.00 in0.0 mm 0.00 in0.0 mm
10:55 AM 83.0°F28.3°C 54.8°F12.7°C 38% 0.5 mph N0.8 kmh N 2.5 mph4.0 kmh 29.26 in990.9 mb 0.00 in0.0 mm 0.00 in0.0 mm 0.00 in0.0 mm
11:00 AM 82.7°F28.2°C 55.3°F12.9°C 39% Calm Calm -- 29.26 in990.9 mb 0.00 in0.0 mm 0.00 in0.0 mm 0.00 in0.0 mm
11:05 AM 82.7°F28.2°C 53.7°F12.1°C 37% 0.2 mph NW0.3 kmh NW 2.5 mph4.0 kmh 29.26 in990.9 mb 0.00 in0.0 mm 0.00 in0.0 mm 0.00 in0.0 mm
11:10 AM 82.6°F28.1°C 54.3°F12.4°C 38% 0.5 mph NW0.8 kmh NW 2.5 mph4.0 kmh 29.26 in990.9 mb 0.00 in0.0 mm 0.00 in0.0 mm 0.00 in0.0 mm
11:15 AM 82.8°F28.2°C 54.5°F12.5°C 38% 1.0 mph N1.6 kmh N 4.9 mph7.9 kmh 29.25 in990.5 mb 0.00 in0.0 mm 0.00 in0.0 mm 0.00 in0.0 mm
11:20 AM 82.9°F28.3°C 55.0°F12.8°C 38% 0.4 mph NNW0.6 kmh NNW 2.5 mph4.0 kmh 29.26 in990.9 mb 0.00 in0.0 mm 0.00 in0.0 mm 0.00 in0.0 mm
11:25 AM 82.8°F28.2°C 54.4°F12.4°C 38% 0.8 mph N1.3 kmh N 4.9 mph7.9 kmh 29.25 in990.5 mb 0.00 in0.0 mm 0.00 in0.0 mm 0.00 in0.0 mm
11:30 AM 82.9°F28.3°C 53.9°F12.2°C 37% 0.2 mph NNW0.3 kmh NNW 2.5 mph4.0 kmh 29.25 in990.5 mb 0.00 in0.0 mm 0.00 in0.0 mm 0.00 in0.0 mm
11:35 AM 82.9°F28.3°C 53.0°F11.7°C 36% 0.2 mph N0.3 kmh N 2.5 mph4.0 kmh 29.25 in990.5 mb 0.00 in0.0 mm 0.00 in0.0 mm 0.00 in0.0 mm
11:40 AM 83.1°F28.4°C 51.9°F11.1°C 34% Calm Calm 2.5 mph4.0 kmh 29.24 in990.2 mb 0.00 in0.0 mm 0.00 in0.0 mm 0.00 in0.0 mm
11:45 AM 83.3°F28.5°C 52.0°F11.1°C 34% 0.7 mph NE1.1 kmh NE 2.5 mph4.0 kmh 29.24 in990.2 mb 0.00 in0.0 mm 0.00 in0.0 mm 0.00 in0.0 mm
11:50 AM 83.7°F28.7°C 52.6°F11.4°C 34% 1.1 mph N1.8 kmh N 4.9 mph7.9 kmh 29.24 in990.2 mb 0.00 in0.0 mm 0.00 in0.0 mm 0.00 in0.0 mm
11:55 AM 83.9°F28.8°C 52.3°F11.3°C 34% 0.9 mph NE1.4 kmh NE 4.9 mph7.9 kmh 29.24 in990.2 mb 0.00 in0.0 mm 0.00 in0.0 mm 0.00 in0.0 mm
12:00 PM 84.1°F28.9°C 52.2°F11.2°C 34% 0.7 mph N1.1 kmh N 2.5 mph4.0 kmh 29.23 in989.8 mb 0.00 in0.0 mm 0.00 in0.0 mm 0.00 in0.0 mm
12:05 PM 84.3°F29.1°C 52.3°F11.3°C 33% 1.2 mph NW1.9 kmh NW 4.9 mph7.9 kmh 29.24 in990.2 mb 0.00 in0.0 mm 0.00 in0.0 mm 0.00 in0.0 mm
12:10 PM 84.4°F29.1°C 51.6°F10.9°C 32% 0.3 mph NW0.5 kmh NW 2.5 mph4.0 kmh 29.23 in989.8 mb 0.00 in0.0 mm 0.00 in0.0 mm 0.00 in0.0 mm
12:15 PM 84.4°F29.1°C 51.5°F10.8°C 32% Calm Calm -- 29.24 in990.2 mb 0.00 in0.0 mm 0.00 in0.0 mm 0.00 in0.0 mm
12:20 PM 84.6°F29.2°C 52.1°F11.2°C 33% 0.3 mph N0.5 kmh N 2.5 mph4.0 kmh 29.23 in989.8 mb 0.00 in0.0 mm 0.00 in0.0 mm 0.00 in0.0 mm
12:25 PM 84.8°F29.3°C 51.7°F10.9°C 32% 0.7 mph NE1.1 kmh NE 2.5 mph4.0 kmh 29.23 in989.8 mb 0.00 in0.0 mm 0.00 in0.0 mm 0.00 in0.0 mm
12:30 PM 85.0°F29.4°C 52.4°F11.3°C 33% 1.0 mph N1.6 kmh N 2.5 mph4.0 kmh 29.23 in989.8 mb 0.00 in0.0 mm 0.00 in0.0 mm 0.00 in0.0 mm
12:35 PM 85.2°F29.6°C 52.6°F11.4°C 33% 0.8 mph N1.3 kmh N 2.5 mph4.0 kmh 29.23 in989.8 mb 0.00 in0.0 mm 0.00 in0.0 mm 0.00 in0.0 mm
12:40 PM 85.4°F29.7°C 52.7°F11.5°C 33% 1.6 mph N2.6 kmh N 4.9 mph7.9 kmh 29.23 in989.8 mb 0.00 in0.0 mm 0.00 in0.0 mm 0.00 in0.0 mm
12:45 PM 85.6°F29.8°C 52.8°F11.6°C 33% 1.7 mph NNE2.7 kmh NNE 4.9 mph7.9 kmh 29.22 in989.5 mb 0.00 in0.0 mm 0.00 in0.0 mm 0.00 in0.0 mm
12:50 PM 85.7°F29.8°C 52.0°F11.1°C 32% 1.0 mph NE1.6 kmh NE 2.5 mph4.0 kmh 29.22 in989.5 mb 0.00 in0.0 mm 0.00 in0.0 mm 0.00 in0.0 mm
12:55 PM 85.8°F29.9°C 51.7°F10.9°C 31% 0.8 mph ESE1.3 kmh ESE 4.9 mph7.9 kmh 29.22 in989.5 mb 0.00 in0.0 mm 0.00 in0.0 mm 0.00 in0.0 mm
01:00 PM 86.1°F30.1°C 51.7°F10.9°C 31% 0.9 mph E1.4 kmh E 4.9 mph7.9 kmh 29.21 in989.2 mb 0.00 in0.0 mm 0.00 in0.0 mm 0.00 in0.0 mm
01:05 PM 86.4°F30.2°C 51.4°F10.8°C 30% 0.4 mph N0.6 kmh N 2.5 mph4.0 kmh 29.21 in989.2 mb 0.00 in0.0 mm 0.00 in0.0 mm 0.00 in0.0 mm
01:10 PM 86.6°F30.3°C 51.5°F10.8°C 30% Calm Calm -- 29.21 in989.2 mb 0.00 in0.0 mm 0.00 in0.0 mm 0.00 in0.0 mm
01:15 PM 87.0°F30.6°C 51.6°F10.9°C 30% 0.2 mph NW0.3 kmh NW 2.5 mph4.0 kmh 29.21 in989.2 mb 0.00 in0.0 mm 0.00 in0.0 mm 0.00 in0.0 mm
01:20 PM 87.1°F30.6°C 53.0°F11.7°C 31% 0.6 mph NNE1.0 kmh NNE 2.5 mph4.0 kmh 29.20 in988.8 mb 0.00 in0.0 mm 0.00 in0.0 mm 0.00 in0.0 mm
01:25 PM 87.3°F30.7°C 52.7°F11.5°C 31% 0.8 mph N1.3 kmh N 2.5 mph4.0 kmh 29.21 in989.2 mb 0.00 in0.0 mm 0.00 in0.0 mm 0.00 in0.0 mm
01:30 PM 87.1°F30.6°C 52.9°F11.6°C 31% 0.7 mph NNE1.1 kmh NNE 2.5 mph4.0 kmh 29.20 in988.8 mb 0.00 in0.0 mm 0.00 in0.0 mm 0.00 in0.0 mm
01:35 PM 87.0°F30.6°C 52.4°F11.3°C 31% 0.6 mph N1.0 kmh N 2.5 mph4.0 kmh 29.20 in988.8 mb 0.00 in0.0 mm 0.00 in0.0 mm 0.00 in0.0 mm
01:40 PM 86.9°F30.5°C 51.7°F10.9°C 30% 1.9 mph NNW3.1 kmh NNW 4.9 mph7.9 kmh 29.20 in988.8 mb 0.00 in0.0 mm 0.00 in0.0 mm 0.00 in0.0 mm
01:45 PM 86.9°F30.5°C 51.7°F10.9°C 30% 0.9 mph N1.4 kmh N 4.9 mph7.9 kmh 29.19 in988.5 mb 0.00 in0.0 mm 0.00 in0.0 mm 0.00 in0.0 mm
01:50 PM 87.0°F30.6°C 51.6°F10.9°C 30% 0.3 mph NE0.5 kmh NE 2.5 mph4.0 kmh 29.20 in988.8 mb 0.00 in0.0 mm 0.00 in0.0 mm 0.00 in0.0 mm
01:55 PM 87.2°F30.7°C 51.1°F10.6°C 29% 0.9 mph E1.4 kmh E 4.9 mph7.9 kmh 29.19 in988.5 mb 0.00 in0.0 mm 0.00 in0.0 mm 0.00 in0.0 mm
02:00 PM 87.4°F30.8°C 51.2°F10.7°C 29% 2.3 mph N3.7 kmh N 4.9 mph7.9 kmh 29.19 in988.5 mb 0.00 in0.0 mm 0.00 in0.0 mm 0.00 in0.0 mm
02:05 PM 87.6°F30.9°C 51.6°F10.9°C 29% 0.9 mph NE1.4 kmh NE 2.5 mph4.0 kmh 29.18 in988.1 mb 0.00 in0.0 mm 0.00 in0.0 mm 0.00 in0.0 mm
02:10 PM 87.9°F31.1°C 51.2°F10.7°C 28% 1.6 mph ENE2.6 kmh ENE 4.9 mph7.9 kmh 29.18 in988.1 mb 0.00 in0.0 mm 0.00 in0.0 mm 0.00 in0.0 mm
02:15 PM 88.3°F31.3°C 50.7°F10.4°C 28% 2.6 mph E4.2 kmh E 7.4 mph11.9 kmh 29.18 in988.1 mb 0.00 in0.0 mm 0.00 in0.0 mm 0.00 in0.0 mm
02:20 PM 88.8°F31.6°C 49.1°F9.5°C 26% 2.1 mph NE3.4 kmh NE 4.9 mph7.9 kmh 29.18 in988.1 mb 0.00 in0.0 mm 0.00 in0.0 mm 0.00 in0.0 mm
02:25 PM 89.1°F31.7°C 47.7°F8.7°C 24% 1.1 mph 1.8 kmh 2.5 mph4.0 kmh 29.18 in988.1 mb 0.00 in0.0 mm 0.00 in0.0 mm 0.00 in0.0 mm
02:30 PM 89.4°F31.9°C 44.9°F7.2°C 22% 1.3 mph N2.1 kmh N 4.9 mph7.9 kmh 29.18 in988.1 mb 0.00 in0.0 mm 0.00 in0.0 mm 0.00 in0.0 mm
02:35 PM 89.9°F32.2°C 44.4°F6.9°C 21% 2.5 mph NE4.0 kmh NE 4.9 mph7.9 kmh 29.18 in988.1 mb 0.00 in0.0 mm 0.00 in0.0 mm 0.00 in0.0 mm
02:40 PM 90.1°F32.3°C 45.3°F7.4°C 21% 2.4 mph N3.9 kmh N 4.9 mph7.9 kmh 29.18 in988.1 mb 0.00 in0.0 mm 0.00 in0.0 mm 0.00 in0.0 mm
02:45 PM 90.4°F32.4°C 47.9°F8.8°C 23% 0.8 mph NE1.3 kmh NE 2.5 mph4.0 kmh 29.18 in988.1 mb 0.00 in0.0 mm 0.00 in0.0 mm 0.00 in0.0 mm
02:50 PM 90.8°F32.7°C 48.4°F9.1°C 24% 1.9 mph N3.1 kmh N 4.9 mph7.9 kmh 29.17 in987.8 mb 0.00 in0.0 mm 0.00 in0.0 mm 0.00 in0.0 mm
02:55 PM 91.0°F32.8°C 48.2°F9.0°C 23% 1.0 mph E1.6 kmh E 2.5 mph4.0 kmh 29.18 in988.1 mb 0.00 in0.0 mm 0.00 in0.0 mm 0.00 in0.0 mm
03:00 PM 91.4°F33.0°C 42.5°F5.8°C 18% 1.1 mph NNE1.8 kmh NNE 4.9 mph7.9 kmh 29.17 in987.8 mb 0.00 in0.0 mm 0.00 in0.0 mm 0.00 in0.0 mm
03:05 PM 91.8°F33.2°C 46.8°F8.2°C 22% 1.3 mph E2.1 kmh E 4.9 mph7.9 kmh 29.17 in987.8 mb 0.00 in0.0 mm 0.00 in0.0 mm 0.00 in0.0 mm
03:10 PM 92.1°F33.4°C 46.7°F8.2°C 21% 1.3 mph E2.1 kmh E 2.5 mph4.0 kmh 29.17 in987.8 mb 0.00 in0.0 mm 0.00 in0.0 mm 0.00 in0.0 mm
03:15 PM 92.5°F33.6°C 47.8°F8.8°C 22% 1.8 mph NE2.9 kmh NE 4.9 mph7.9 kmh 29.17 in987.8 mb 0.00 in0.0 mm 0.00 in0.0 mm 0.00 in0.0 mm
03:20 PM 92.5°F33.6°C 48.1°F8.9°C 22% 0.9 mph SE1.4 kmh SE 2.5 mph4.0 kmh 29.17 in987.8 mb 0.00 in0.0 mm 0.00 in0.0 mm 0.00 in0.0 mm
03:25 PM 92.6°F33.7°C 47.9°F8.8°C 22% 0.4 mph E0.6 kmh E 2.5 mph4.0 kmh 29.17 in987.8 mb 0.00 in0.0 mm 0.00 in0.0 mm 0.00 in0.0 mm
03:30 PM 92.7°F33.7°C 48.0°F8.9°C 22% 0.9 mph E1.4 kmh E 2.5 mph4.0 kmh 29.17 in987.8 mb 0.00 in0.0 mm 0.00 in0.0 mm 0.00 in0.0 mm
03:35 PM 92.7°F33.7°C 47.8°F8.8°C 22% 3.4 mph N5.5 kmh N 7.4 mph11.9 kmh 29.17 in987.8 mb 0.00 in0.0 mm 0.00 in0.0 mm 0.00 in0.0 mm
03:40 PM 92.3°F33.5°C 48.1°F8.9°C 22% 1.3 mph ENE2.1 kmh ENE 4.9 mph7.9 kmh 29.16 in987.5 mb 0.00 in0.0 mm 0.00 in0.0 mm 0.00 in0.0 mm
03:45 PM 91.9°F33.3°C 48.5°F9.2°C 23% 2.2 mph NNE3.5 kmh NNE 4.9 mph7.9 kmh 29.16 in987.5 mb 0.00 in0.0 mm 0.00 in0.0 mm 0.00 in0.0 mm
03:50 PM 91.7°F33.2°C 48.8°F9.3°C 23% 1.2 mph SSE1.9 kmh SSE 4.9 mph7.9 kmh 29.16 in987.5 mb 0.00 in0.0 mm 0.00 in0.0 mm 0.00 in0.0 mm
03:55 PM 91.5°F33.1°C 49.2°F9.6°C 24% 0.4 mph N0.6 kmh N 2.5 mph4.0 kmh 29.17 in987.8 mb 0.00 in0.0 mm 0.00 in0.0 mm 0.00 in0.0 mm
04:00 PM 91.1°F32.8°C 47.7°F8.7°C 23% 0.9 mph E1.4 kmh E 2.5 mph4.0 kmh 29.17 in987.8 mb 0.00 in0.0 mm 0.00 in0.0 mm 0.00 in0.0 mm
04:05 PM 90.9°F32.7°C 46.9°F8.3°C 22% 0.7 mph E1.1 kmh E 2.5 mph4.0 kmh 29.17 in987.8 mb 0.00 in0.0 mm 0.00 in0.0 mm 0.00 in0.0 mm
04:10 PM 90.9°F32.7°C 47.1°F8.4°C 22% 1.7 mph ENE2.7 kmh ENE 4.9 mph7.9 kmh 29.17 in987.8 mb 0.00 in0.0 mm 0.00 in0.0 mm 0.00 in0.0 mm
04:15 PM 90.7°F32.6°C 47.0°F8.3°C 22% 1.0 mph NE1.6 kmh NE 4.9 mph7.9 kmh 29.16 in987.5 mb 0.00 in0.0 mm 0.00 in0.0 mm 0.00 in0.0 mm
04:20 PM 90.6°F32.6°C 46.5°F8.1°C 22% 1.5 mph ENE2.4 kmh ENE 4.9 mph7.9 kmh 29.17 in987.8 mb 0.00 in0.0 mm 0.00 in0.0 mm 0.00 in0.0 mm
04:25 PM 90.5°F32.5°C 46.2°F7.9°C 22% 0.4 mph SSW0.6 kmh SSW 2.5 mph4.0 kmh 29.16 in987.5 mb 0.00 in0.0 mm 0.00 in0.0 mm 0.00 in0.0 mm
04:30 PM 90.4°F32.4°C 46.2°F7.9°C 22% 1.3 mph NE2.1 kmh NE 4.9 mph7.9 kmh 29.16 in987.5 mb 0.00 in0.0 mm 0.00 in0.0 mm 0.00 in0.0 mm
04:35 PM 90.3°F32.4°C 47.4°F8.6°C 23% 1.6 mph E2.6 kmh E 4.9 mph7.9 kmh 29.16 in987.5 mb 0.00 in0.0 mm 0.00 in0.0 mm 0.00 in0.0 mm
04:40 PM 90.1°F32.3°C 45.5°F7.5°C 22% 0.7 mph N1.1 kmh N 2.5 mph4.0 kmh 29.16 in987.5 mb 0.00 in0.0 mm 0.00 in0.0 mm 0.00 in0.0 mm
04:45 PM 90.1°F32.3°C 45.1°F7.3°C 21% 1.7 mph NNE2.7 kmh NNE 4.9 mph7.9 kmh 29.16 in987.5 mb 0.00 in0.0 mm 0.00 in0.0 mm 0.00 in0.0 mm
04:50 PM 90.1°F32.3°C 44.9°F7.2°C 21% 1.7 mph ENE2.7 kmh ENE 4.9 mph7.9 kmh 29.16 in987.5 mb 0.00 in0.0 mm 0.00 in0.0 mm 0.00 in0.0 mm
04:55 PM 90.0°F32.2°C 44.6°F7.0°C 21% 0.7 mph NE1.1 kmh NE 2.5 mph4.0 kmh 29.16 in987.5 mb 0.00 in0.0 mm 0.00 in0.0 mm 0.00 in0.0 mm
05:00 PM 90.0°F32.2°C 44.8°F7.1°C 21% 0.7 mph NE1.1 kmh NE 2.5 mph4.0 kmh 29.16 in987.5 mb 0.00 in0.0 mm 0.00 in0.0 mm 0.00 in0.0 mm
05:05 PM 90.0°F32.2°C 45.6°F7.6°C 22% 0.7 mph NE1.1 kmh NE 2.5 mph4.0 kmh 29.16 in987.5 mb 0.00 in0.0 mm 0.00 in0.0 mm 0.00 in0.0 mm
05:10 PM 90.0°F32.2°C 46.0°F7.8°C 22% 0.1 mph ENE0.2 kmh ENE 2.5 mph4.0 kmh 29.16 in987.5 mb 0.00 in0.0 mm 0.00 in0.0 mm 0.00 in0.0 mm
05:15 PM 90.0°F32.2°C 45.4°F7.4°C 22% 1.2 mph E1.9 kmh E 4.9 mph7.9 kmh 29.16 in987.5 mb 0.00 in0.0 mm 0.00 in0.0 mm 0.00 in0.0 mm
05:20 PM 90.0°F32.2°C 45.0°F7.2°C 21% 0.1 mph E0.2 kmh E 2.5 mph4.0 kmh 29.16 in987.5 mb 0.00 in0.0 mm 0.00 in0.0 mm 0.00 in0.0 mm
05:25 PM 89.9°F32.2°C 45.5°F7.5°C 22% 0.5 mph NNE0.8 kmh NNE 2.5 mph4.0 kmh 29.16 in987.5 mb 0.00 in0.0 mm 0.00 in0.0 mm 0.00 in0.0 mm
05:30 PM 89.8°F32.1°C 47.6°F8.7°C 24% 1.3 mph E2.1 kmh E 2.5 mph4.0 kmh 29.16 in987.5 mb 0.00 in0.0 mm 0.00 in0.0 mm 0.00 in0.0 mm
05:35 PM 89.6°F32.0°C 46.8°F8.2°C 23% 1.5 mph E2.4 kmh E 4.9 mph7.9 kmh 29.16 in987.5 mb 0.00 in0.0 mm 0.00 in0.0 mm 0.00 in0.0 mm
05:40 PM 89.6°F32.0°C 47.5°F8.6°C 24% 0.5 mph N0.8 kmh N 2.5 mph4.0 kmh 29.16 in987.5 mb 0.00 in0.0 mm 0.00 in0.0 mm 0.00 in0.0 mm
05:45 PM 89.4°F31.9°C 46.7°F8.2°C 23% 1.3 mph ENE2.1 kmh ENE 4.9 mph7.9 kmh 29.16 in987.5 mb 0.00 in0.0 mm 0.00 in0.0 mm 0.00 in0.0 mm
05:50 PM 89.2°F31.8°C 47.1°F8.4°C 24% 1.4 mph ESE2.3 kmh ESE 4.9 mph7.9 kmh 29.16 in987.5 mb 0.00 in0.0 mm 0.00 in0.0 mm 0.00 in0.0 mm
05:55 PM 89.0°F31.7°C 47.5°F8.6°C 24% 0.1 mph ESE0.2 kmh ESE 2.5 mph4.0 kmh 29.16 in987.5 mb 0.00 in0.0 mm 0.00 in0.0 mm 0.00 in0.0 mm
06:00 PM 88.8°F31.6°C 47.9°F8.8°C 24% Calm Calm -- 29.16 in987.5 mb 0.00 in0.0 mm 0.00 in0.0 mm 0.00 in0.0 mm
06:05 PM 88.6°F31.4°C 48.2°F9.0°C 25% 1.6 mph E2.6 kmh E 4.9 mph7.9 kmh 29.16 in987.5 mb 0.00 in0.0 mm 0.00 in0.0 mm 0.00 in0.0 mm
06:10 PM 88.3°F31.3°C 48.8°F9.3°C 26% 1.6 mph ESE2.6 kmh ESE 4.9 mph7.9 kmh 29.16 in987.5 mb 0.00 in0.0 mm 0.00 in0.0 mm 0.00 in0.0 mm
06:15 PM 88.1°F31.2°C 49.9°F9.9°C 27% 1.1 mph ESE1.8 kmh ESE 4.9 mph7.9 kmh 29.16 in987.5 mb 0.00 in0.0 mm 0.00 in0.0 mm 0.00 in0.0 mm
06:20 PM 87.9°F31.1°C 49.3°F9.6°C 27% 0.6 mph E1.0 kmh E 4.9 mph7.9 kmh 29.16 in987.5 mb 0.00 in0.0 mm 0.00 in0.0 mm 0.00 in0.0 mm
06:25 PM 87.5°F30.8°C 48.5°F9.2°C 26% 0.5 mph E0.8 kmh E 2.5 mph4.0 kmh 29.16 in987.5 mb 0.00 in0.0 mm 0.00 in0.0 mm 0.00 in0.0 mm
06:30 PM 87.2°F30.7°C 49.8°F9.9°C 28% Calm Calm 2.5 mph4.0 kmh 29.16 in987.5 mb 0.00 in0.0 mm 0.00 in0.0 mm 0.00 in0.0 mm
06:35 PM 86.8°F30.4°C 49.8°F9.9°C 28% 0.4 mph E0.6 kmh E 2.5 mph4.0 kmh 29.16 in987.5 mb 0.00 in0.0 mm 0.00 in0.0 mm 0.00 in0.0 mm
06:40 PM 86.4°F30.2°C 49.3°F9.6°C 28% 0.1 mph E0.2 kmh E 2.5 mph4.0 kmh 29.16 in987.5 mb 0.00 in0.0 mm 0.00 in0.0 mm 0.00 in0.0 mm
06:45 PM 86.1°F30.1°C 48.2°F9.0°C 27% 1.2 mph E1.9 kmh E 2.5 mph4.0 kmh 29.16 in987.5 mb 0.00 in0.0 mm 0.00 in0.0 mm 0.00 in0.0 mm
06:50 PM 85.7°F29.8°C 48.4°F9.1°C 28% Calm Calm -- 29.16 in987.5 mb 0.00 in0.0 mm 0.00 in0.0 mm 0.00 in0.0 mm
06:55 PM 85.4°F29.7°C 48.7°F9.3°C 28% 0.4 mph ESE0.6 kmh ESE 2.5 mph4.0 kmh 29.16 in987.5 mb 0.00 in0.0 mm 0.00 in0.0 mm 0.00 in0.0 mm
07:00 PM 85.0°F29.4°C 49.6°F9.8°C 30% 1.3 mph SE2.1 kmh SE 2.5 mph4.0 kmh 29.16 in987.5 mb 0.00 in0.0 mm 0.00 in0.0 mm 0.00 in0.0 mm
07:05 PM 84.8°F29.3°C 50.3°F10.2°C 30% 1.8 mph SE2.9 kmh SE 4.9 mph7.9 kmh 29.17 in987.8 mb 0.00 in0.0 mm 0.00 in0.0 mm 0.00 in0.0 mm
07:10 PM 84.5°F29.2°C 51.7°F10.9°C 32% 2.0 mph SE3.2 kmh SE 4.9 mph7.9 kmh 29.16 in987.5 mb 0.00 in0.0 mm 0.00 in0.0 mm 0.00 in0.0 mm
07:15 PM 84.3°F29.1°C 54.4°F12.4°C 36% 2.1 mph SSE3.4 kmh SSE 4.9 mph7.9 kmh 29.16 in987.5 mb 0.00 in0.0 mm 0.00 in0.0 mm 0.00 in0.0 mm
07:20 PM 83.9°F28.8°C 56.5°F13.6°C 39% 2.0 mph SE3.2 kmh SE 4.9 mph7.9 kmh 29.17 in987.8 mb 0.00 in0.0 mm 0.00 in0.0 mm 0.00 in0.0 mm
07:25 PM 83.8°F28.8°C 57.9°F14.4°C 42% 1.4 mph SSE2.3 kmh SSE 4.9 mph7.9 kmh 29.17 in987.8 mb 0.00 in0.0 mm 0.00 in0.0 mm 0.00 in0.0 mm
07:30 PM 83.7°F28.7°C 58.5°F14.7°C 43% 2.0 mph SE3.2 kmh SE 4.9 mph7.9 kmh 29.17 in987.8 mb 0.00 in0.0 mm 0.00 in0.0 mm 0.00 in0.0 mm
07:35 PM 83.4°F28.6°C 59.4°F15.2°C 44% 2.6 mph S4.2 kmh S 7.4 mph11.9 kmh 29.18 in988.1 mb 0.00 in0.0 mm 0.00 in0.0 mm 0.00 in0.0 mm
07:40 PM 83.2°F28.4°C 60.5°F15.8°C 46% 5.4 mph SSE8.7 kmh SSE 12.3 mph19.8 kmh 29.18 in988.1 mb 0.00 in0.0 mm 0.00 in0.0 mm 0.00 in0.0 mm
07:45 PM 83.0°F28.3°C 61.3°F16.3°C 48% 4.0 mph SSE6.4 kmh SSE 7.4 mph11.9 kmh 29.18 in988.1 mb 0.00 in0.0 mm 0.00 in0.0 mm 0.00 in0.0 mm
07:50 PM 82.8°F28.2°C 61.8°F16.6°C 49% 4.2 mph SE6.8 kmh SE 9.8 mph15.8 kmh 29.18 in988.1 mb 0.00 in0.0 mm 0.00 in0.0 mm 0.00 in0.0 mm
07:55 PM 82.7°F28.2°C 62.2°F16.8°C 50% 4.1 mph SE6.6 kmh SE 7.4 mph11.9 kmh 29.18 in988.1 mb 0.00 in0.0 mm 0.00 in0.0 mm 0.00 in0.0 mm
08:00 PM 82.6°F28.1°C 61.9°F16.6°C 50% 3.7 mph SE6.0 kmh SE 7.4 mph11.9 kmh 29.18 in988.1 mb 0.00 in0.0 mm 0.00 in0.0 mm 0.00 in0.0 mm
08:05 PM 82.4°F28.0°C 61.9°F16.6°C 50% 3.7 mph SE6.0 kmh SE 7.4 mph11.9 kmh 29.18 in988.1 mb 0.00 in0.0 mm 0.00 in0.0 mm 0.00 in0.0 mm
08:10 PM 82.3°F27.9°C 61.8°F16.6°C 50% 4.7 mph SE7.6 kmh SE 9.8 mph15.8 kmh 29.19 in988.5 mb 0.00 in0.0 mm 0.00 in0.0 mm 0.00 in0.0 mm
08:15 PM 82.1°F27.8°C 61.3°F16.3°C 50% 3.5 mph SSE5.6 kmh SSE 7.4 mph11.9 kmh 29.18 in988.1 mb 0.00 in0.0 mm 0.00 in0.0 mm 0.00 in0.0 mm
08:20 PM 82.0°F27.8°C 60.9°F16.1°C 49% 5.2 mph S8.4 kmh S 9.8 mph15.8 kmh 29.18 in988.1 mb 0.00 in0.0 mm 0.00 in0.0 mm 0.00 in0.0 mm
08:25 PM 81.9°F27.7°C 60.8°F16.0°C 49% 4.0 mph SSE6.4 kmh SSE 7.4 mph11.9 kmh 29.18 in988.1 mb 0.00 in0.0 mm 0.00 in0.0 mm 0.00 in0.0 mm
08:30 PM 81.7°F27.6°C 60.7°F15.9°C 49% 4.0 mph SSE6.4 kmh SSE 7.4 mph11.9 kmh 29.19 in988.5 mb 0.00 in0.0 mm 0.00 in0.0 mm 0.00 in0.0 mm
08:35 PM 81.6°F27.6°C 61.2°F16.2°C 50% 2.7 mph SE4.3 kmh SE 7.4 mph11.9 kmh 29.19 in988.5 mb 0.00 in0.0 mm 0.00 in0.0 mm 0.00 in0.0 mm
08:40 PM 81.5°F27.5°C 61.0°F16.1°C 50% 3.3 mph SE5.3 kmh SE 7.4 mph11.9 kmh 29.19 in988.5 mb 0.00 in0.0 mm 0.00 in0.0 mm 0.00 in0.0 mm
08:45 PM 81.2°F27.3°C 61.6°F16.4°C 52% 2.8 mph SE4.5 kmh SE 4.9 mph7.9 kmh 29.19 in988.5 mb 0.00 in0.0 mm 0.00 in0.0 mm 0.00 in0.0 mm
08:50 PM 81.0°F27.2°C 61.7°F16.5°C 52% 3.0 mph SSE4.8 kmh SSE 7.4 mph11.9 kmh 29.20 in988.8 mb 0.00 in0.0 mm 0.00 in0.0 mm 0.00 in0.0 mm
08:55 PM 80.9°F27.2°C 61.7°F16.5°C 52% 3.0 mph SSE4.8 kmh SSE 7.4 mph11.9 kmh 29.20 in988.8 mb 0.00 in0.0 mm 0.00 in0.0 mm 0.00 in0.0 mm
09:00 PM 80.5°F26.9°C 61.8°F16.6°C 53% 2.9 mph SE4.7 kmh SE 7.4 mph11.9 kmh 29.19 in988.5 mb 0.00 in0.0 mm 0.00 in0.0 mm 0.00 in0.0 mm
09:05 PM 80.3°F26.8°C 61.8°F16.6°C 53% 2.9 mph SE4.7 kmh SE 4.9 mph7.9 kmh 29.20 in988.8 mb 0.00 in0.0 mm 0.00 in0.0 mm 0.00 in0.0 mm
09:10 PM 80.1°F26.7°C 61.9°F16.6°C 54% 6.2 mph SSE10.0 kmh SSE 9.8 mph15.8 kmh 29.19 in988.5 mb 0.00 in0.0 mm 0.00 in0.0 mm 0.00 in0.0 mm
09:15 PM 79.9°F26.6°C 62.1°F16.7°C 55% 4.2 mph SE6.8 kmh SE 9.8 mph15.8 kmh 29.19 in988.5 mb 0.00 in0.0 mm 0.00 in0.0 mm 0.00 in0.0 mm
09:20 PM 79.7°F26.5°C 62.3°F16.8°C 56% 3.3 mph SE5.3 kmh SE 9.8 mph15.8 kmh 29.20 in988.8 mb 0.00 in0.0 mm 0.00 in0.0 mm 0.00 in0.0 mm
09:25 PM 79.4°F26.3°C 62.8°F17.1°C 57% 1.9 mph SE3.1 kmh SE 7.4 mph11.9 kmh 29.20 in988.8 mb 0.00 in0.0 mm 0.00 in0.0 mm 0.00 in0.0 mm
09:30 PM 79.2°F26.2°C 63.2°F17.3°C 58% 2.6 mph SE4.2 kmh SE 4.9 mph7.9 kmh 29.20 in988.8 mb 0.00 in0.0 mm 0.00 in0.0 mm 0.00 in0.0 mm
09:35 PM 79.0°F26.1°C 63.0°F17.2°C 58% 4.2 mph SSE6.8 kmh SSE 9.8 mph15.8 kmh 29.20 in988.8 mb 0.00 in0.0 mm 0.00 in0.0 mm 0.00 in0.0 mm
09:40 PM 78.8°F26.0°C 63.2°F17.3°C 59% 4.3 mph SE6.9 kmh SE 9.8 mph15.8 kmh 29.20 in988.8 mb 0.00 in0.0 mm 0.00 in0.0 mm 0.00 in0.0 mm
09:45 PM 78.7°F25.9°C 63.1°F17.3°C 59% 3.6 mph SSE5.8 kmh SSE 9.8 mph15.8 kmh 29.20 in988.8 mb 0.00 in0.0 mm 0.00 in0.0 mm 0.00 in0.0 mm
09:50 PM 78.5°F25.8°C 63.2°F17.3°C 59% 3.6 mph SSE5.8 kmh SSE 7.4 mph11.9 kmh 29.20 in988.8 mb 0.00 in0.0 mm 0.00 in0.0 mm 0.00 in0.0 mm
09:55 PM 78.3°F25.7°C 63.2°F17.3°C 60% 2.5 mph SE4.0 kmh SE 7.4 mph11.9 kmh 29.20 in988.8 mb 0.00 in0.0 mm 0.00 in0.0 mm 0.00 in0.0 mm
10:00 PM 78.0°F25.6°C 63.0°F17.2°C 60% 3.2 mph SE5.1 kmh SE 9.8 mph15.8 kmh 29.20 in988.8 mb 0.00 in0.0 mm 0.00 in0.0 mm 0.00 in0.0 mm
10:05 PM 77.8°F25.4°C 62.8°F17.1°C 60% 4.5 mph SE7.2 kmh SE 9.8 mph15.8 kmh 29.20 in988.8 mb 0.00 in0.0 mm 0.00 in0.0 mm 0.00 in0.0 mm
10:10 PM 77.5°F25.3°C 62.5°F16.9°C 60% 4.0 mph SE6.4 kmh SE 7.4 mph11.9 kmh 29.20 in988.8 mb 0.00 in0.0 mm 0.00 in0.0 mm 0.00 in0.0 mm
10:15 PM 77.3°F25.2°C 62.8°F17.1°C 61% 3.0 mph SSE4.8 kmh SSE 4.9 mph7.9 kmh 29.20 in988.8 mb 0.00 in0.0 mm 0.00 in0.0 mm 0.00 in0.0 mm
10:20 PM 77.2°F25.1°C 62.7°F17.1°C 61% 5.0 mph SSE8.0 kmh SSE 7.4 mph11.9 kmh 29.21 in989.2 mb 0.00 in0.0 mm 0.00 in0.0 mm 0.00 in0.0 mm
10:25 PM 77.2°F25.1°C 63.0°F17.2°C 62% 3.9 mph SE6.3 kmh SE 7.4 mph11.9 kmh 29.21 in989.2 mb 0.00 in0.0 mm 0.00 in0.0 mm 0.00 in0.0 mm
10:30 PM 77.2°F25.1°C 63.2°F17.3°C 62% 3.7 mph SSE6.0 kmh SSE 7.4 mph11.9 kmh 29.21 in989.2 mb 0.00 in0.0 mm 0.00 in0.0 mm 0.00 in0.0 mm
10:35 PM 77.2°F25.1°C 63.2°F17.3°C 62% 5.3 mph SSE8.5 kmh SSE 7.4 mph11.9 kmh 29.21 in989.2 mb 0.00 in0.0 mm 0.00 in0.0 mm 0.00 in0.0 mm
10:40 PM 77.2°F25.1°C 63.2°F17.3°C 62% 4.3 mph SE6.9 kmh SE 9.8 mph15.8 kmh 29.21 in989.2 mb 0.00 in0.0 mm 0.00 in0.0 mm 0.00 in0.0 mm
10:45 PM 77.1°F25.1°C 63.3°F17.4°C 62% 4.3 mph SSE6.9 kmh SSE 7.4 mph11.9 kmh 29.21 in989.2 mb 0.00 in0.0 mm 0.00 in0.0 mm 0.00 in0.0 mm
10:50 PM 77.0°F25.0°C 63.4°F17.4°C 63% 6.4 mph SSE10.3 kmh SSE 9.8 mph15.8 kmh 29.21 in989.2 mb 0.00 in0.0 mm 0.00 in0.0 mm 0.00 in0.0 mm
10:55 PM 77.0°F25.0°C 63.6°F17.6°C 64% 2.1 mph SE3.4 kmh SE 4.9 mph7.9 kmh 29.21 in989.2 mb 0.00 in0.0 mm 0.00 in0.0 mm 0.00 in0.0 mm
11:00 PM 77.0°F25.0°C 64.3°F17.9°C 65% 4.3 mph SE6.9 kmh SE 9.8 mph15.8 kmh 29.21 in989.2 mb 0.00 in0.0 mm 0.00 in0.0 mm 0.00 in0.0 mm
11:05 PM 76.8°F24.9°C 64.1°F17.8°C 65% 3.4 mph SE5.5 kmh SE 9.8 mph15.8 kmh 29.21 in989.2 mb 0.00 in0.0 mm 0.00 in0.0 mm 0.00 in0.0 mm
11:10 PM 76.7°F24.8°C 64.0°F17.8°C 65% 4.1 mph SE6.6 kmh SE 7.4 mph11.9 kmh 29.21 in989.2 mb 0.00 in0.0 mm 0.00 in0.0 mm 0.00 in0.0 mm
11:15 PM 76.6°F24.8°C 64.1°F17.8°C 65% 3.9 mph SE6.3 kmh SE 7.4 mph11.9 kmh 29.21 in989.2 mb 0.00 in0.0 mm 0.00 in0.0 mm 0.00 in0.0 mm
11:20 PM 76.5°F24.7°C 64.3°F17.9°C 66% 2.9 mph SE4.7 kmh SE 4.9 mph7.9 kmh 29.21 in989.2 mb 0.00 in0.0 mm 0.00 in0.0 mm 0.00 in0.0 mm
11:25 PM 76.3°F24.6°C 64.3°F17.9°C 66% 2.6 mph SE4.2 kmh SE 4.9 mph7.9 kmh 29.21 in989.2 mb 0.00 in0.0 mm 0.00 in0.0 mm 0.00 in0.0 mm
11:30 PM 76.2°F24.6°C 64.4°F18.0°C 67% 3.8 mph SE6.1 kmh SE 9.8 mph15.8 kmh 29.21 in989.2 mb 0.00 in0.0 mm 0.00 in0.0 mm 0.00 in0.0 mm
11:35 PM 76.1°F24.5°C 64.3°F17.9°C 67% 2.9 mph SE4.7 kmh SE 7.4 mph11.9 kmh 29.21 in989.2 mb 0.00 in0.0 mm 0.00 in0.0 mm 0.00 in0.0 mm
11:40 PM 75.9°F24.4°C 64.4°F18.0°C 68% 2.8 mph SSE4.5 kmh SSE 4.9 mph7.9 kmh 29.20 in988.8 mb 0.00 in0.0 mm 0.00 in0.0 mm 0.00 in0.0 mm
11:45 PM 75.8°F24.3°C 64.5°F18.1°C 68% 1.2 mph SE1.9 kmh SE 4.9 mph7.9 kmh 29.20 in988.8 mb 0.00 in0.0 mm 0.00 in0.0 mm 0.00 in0.0 mm
11:50 PM 75.7°F24.3°C 64.6°F18.1°C 68% 2.5 mph ESE4.0 kmh ESE 7.4 mph11.9 kmh 29.21 in989.2 mb 0.00 in0.0 mm 0.00 in0.0 mm 0.00 in0.0 mm
11:55 PM 75.6°F24.2°C 64.7°F18.2°C 69% 2.1 mph SSE3.4 kmh SSE 4.9 mph7.9 kmh 29.21 in989.2 mb 0.00 in0.0 mm 0.00 in0.0 mm 0.00 in0.0 mm